sensor_id;sensor_type;location;lat;lon;timestamp;P1;durP1;ratioP1;P2;durP2;ratioP2
3253;SDS011;1639;42.804;23.342;2022-12-29T00:01:34;5.13;;;1.67;;
3253;SDS011;1639;42.804;23.342;2022-12-29T00:04:01;5.90;;;2.57;;
3253;SDS011;1639;42.804;23.342;2022-12-29T00:06:26;5.10;;;1.30;;
3253;SDS011;1639;42.804;23.342;2022-12-29T00:08:52;5.30;;;1.73;;
3253;SDS011;1639;42.804;23.342;2022-12-29T00:11:18;5.57;;;1.87;;
3253;SDS011;1639;42.804;23.342;2022-12-29T00:13:45;6.00;;;1.83;;
3253;SDS011;1639;42.804;23.342;2022-12-29T00:16:30;5.20;;;1.50;;
3253;SDS011;1639;42.804;23.342;2022-12-29T00:18:55;5.60;;;2.20;;
3253;SDS011;1639;42.804;23.342;2022-12-29T00:21:22;5.10;;;1.60;;
3253;SDS011;1639;42.804;23.342;2022-12-29T00:24:14;5.80;;;1.90;;
3253;SDS011;1639;42.804;23.342;2022-12-29T00:29:47;6.27;;;3.10;;
3253;SDS011;1639;42.804;23.342;2022-12-29T00:32:31;6.00;;;2.30;;
3253;SDS011;1639;42.804;23.342;2022-12-29T00:35:23;6.10;;;2.10;;
3253;SDS011;1639;42.804;23.342;2022-12-29T00:37:52;5.50;;;1.77;;
3253;SDS011;1639;42.804;23.342;2022-12-29T00:40:46;5.00;;;1.40;;
3253;SDS011;1639;42.804;23.342;2022-12-29T00:43:30;11.60;;;3.37;;
3253;SDS011;1639;42.804;23.342;2022-12-29T00:46:14;6.30;;;2.07;;
3253;SDS011;1639;42.804;23.342;2022-12-29T00:48:39;5.43;;;1.93;;
3253;SDS011;1639;42.804;23.342;2022-12-29T00:51:23;6.03;;;2.47;;
3253;SDS011;1639;42.804;23.342;2022-12-29T00:53:49;5.50;;;1.93;;
3253;SDS011;1639;42.804;23.342;2022-12-29T00:56:14;5.50;;;2.03;;
3253;SDS011;1639;42.804;23.342;2022-12-29T00:58:39;9.43;;;2.67;;
3253;SDS011;1639;42.804;23.342;2022-12-29T01:01:06;9.90;;;3.50;;
3253;SDS011;1639;42.804;23.342;2022-12-29T01:03:33;16.87;;;4.80;;
3253;SDS011;1639;42.804;23.342;2022-12-29T01:06:00;5.40;;;1.93;;
3253;SDS011;1639;42.804;23.342;2022-12-29T01:08:27;5.60;;;2.03;;
3253;SDS011;1639;42.804;23.342;2022-12-29T01:13:24;5.70;;;1.97;;
3253;SDS011;1639;42.804;23.342;2022-12-29T01:15:50;5.70;;;2.10;;
3253;SDS011;1639;42.804;23.342;2022-12-29T01:18:16;5.80;;;2.13;;
3253;SDS011;1639;42.804;23.342;2022-12-29T01:20:42;6.03;;;2.40;;
3253;SDS011;1639;42.804;23.342;2022-12-29T01:23:08;6.70;;;1.93;;
3253;SDS011;1639;42.804;23.342;2022-12-29T01:25:33;5.57;;;2.30;;
3253;SDS011;1639;42.804;23.342;2022-12-29T01:27:58;7.57;;;2.80;;
3253;SDS011;1639;42.804;23.342;2022-12-29T01:30:24;5.70;;;2.43;;
3253;SDS011;1639;42.804;23.342;2022-12-29T01:32:49;15.53;;;2.50;;
3253;SDS011;1639;42.804;23.342;2022-12-29T01:35:15;5.70;;;1.90;;
3253;SDS011;1639;42.804;23.342;2022-12-29T01:37:40;5.53;;;2.00;;
3253;SDS011;1639;42.804;23.342;2022-12-29T01:40:05;5.50;;;2.03;;
3253;SDS011;1639;42.804;23.342;2022-12-29T01:42:31;5.10;;;1.50;;
3253;SDS011;1639;42.804;23.342;2022-12-29T01:44:57;5.20;;;1.60;;
3253;SDS011;1639;42.804;23.342;2022-12-29T01:49:58;5.50;;;1.90;;
3253;SDS011;1639;42.804;23.342;2022-12-29T01:52:28;5.20;;;1.60;;
3253;SDS011;1639;42.804;23.342;2022-12-29T01:54:57;7.27;;;1.93;;
3253;SDS011;1639;42.804;23.342;2022-12-29T01:57:25;7.53;;;2.10;;
3253;SDS011;1639;42.804;23.342;2022-12-29T01:59:59;6.03;;;2.00;;
3253;SDS011;1639;42.804;23.342;2022-12-29T02:02:28;6.37;;;2.07;;
3253;SDS011;1639;42.804;23.342;2022-12-29T02:04:55;5.27;;;1.67;;
3253;SDS011;1639;42.804;23.342;2022-12-29T02:07:25;5.50;;;1.57;;
3253;SDS011;1639;42.804;23.342;2022-12-29T02:09:52;6.33;;;3.27;;
3253;SDS011;1639;42.804;23.342;2022-12-29T02:12:20;16.53;;;4.37;;
3253;SDS011;1639;42.804;23.342;2022-12-29T02:14:48;6.37;;;2.80;;
3253;SDS011;1639;42.804;23.342;2022-12-29T02:31:01;5.77;;;2.00;;
3253;SDS011;1639;42.804;23.342;2022-12-29T02:44:40;6.27;;;3.00;;
3253;SDS011;1639;42.804;23.342;2022-12-29T02:47:23;5.07;;;1.70;;
3253;SDS011;1639;42.804;23.342;2022-12-29T02:50:23;7.83;;;2.80;;
3253;SDS011;1639;42.804;23.342;2022-12-29T02:53:09;5.20;;;1.70;;
3253;SDS011;1639;42.804;23.342;2022-12-29T02:55:37;5.20;;;1.93;;
3253;SDS011;1639;42.804;23.342;2022-12-29T02:58:12;5.17;;;1.33;;
3253;SDS011;1639;42.804;23.342;2022-12-29T03:06:12;5.10;;;1.53;;
3253;SDS011;1639;42.804;23.342;2022-12-29T03:09:11;5.30;;;1.70;;
3253;SDS011;1639;42.804;23.342;2022-12-29T03:12:34;19.83;;;3.20;;
3253;SDS011;1639;42.804;23.342;2022-12-29T03:15:22;12.60;;;2.13;;
3253;SDS011;1639;42.804;23.342;2022-12-29T03:18:23;7.47;;;1.87;;
3253;SDS011;1639;42.804;23.342;2022-12-29T03:21:03;7.00;;;1.80;;
3253;SDS011;1639;42.804;23.342;2022-12-29T03:24:12;9.83;;;1.80;;
3253;SDS011;1639;42.804;23.342;2022-12-29T03:26:40;6.80;;;2.20;;
3253;SDS011;1639;42.804;23.342;2022-12-29T03:29:06;6.70;;;2.00;;
3253;SDS011;1639;42.804;23.342;2022-12-29T03:31:34;6.30;;;2.03;;
3253;SDS011;1639;42.804;23.342;2022-12-29T03:34:02;5.10;;;1.40;;
3253;SDS011;1639;42.804;23.342;2022-12-29T03:36:47;8.33;;;2.10;;
3253;SDS011;1639;42.804;23.342;2022-12-29T03:39:15;7.30;;;2.53;;
3253;SDS011;1639;42.804;23.342;2022-12-29T03:41:45;5.83;;;1.50;;
3253;SDS011;1639;42.804;23.342;2022-12-29T03:44:12;5.03;;;1.20;;
3253;SDS011;1639;42.804;23.342;2022-12-29T03:46:38;5.20;;;1.67;;
3253;SDS011;1639;42.804;23.342;2022-12-29T03:49:04;6.83;;;1.73;;
3253;SDS011;1639;42.804;23.342;2022-12-29T03:51:29;8.37;;;1.87;;
3253;SDS011;1639;42.804;23.342;2022-12-29T03:53:54;5.90;;;2.10;;
3253;SDS011;1639;42.804;23.342;2022-12-29T03:56:20;5.20;;;1.43;;
3253;SDS011;1639;42.804;23.342;2022-12-29T03:58:45;5.97;;;2.53;;
3253;SDS011;1639;42.804;23.342;2022-12-29T04:01:10;7.60;;;2.90;;
3253;SDS011;1639;42.804;23.342;2022-12-29T04:03:36;9.80;;;1.57;;
3253;SDS011;1639;42.804;23.342;2022-12-29T04:06:01;10.30;;;1.83;;
3253;SDS011;1639;42.804;23.342;2022-12-29T04:08:27;9.30;;;3.40;;
3253;SDS011;1639;42.804;23.342;2022-12-29T04:10:52;6.30;;;2.43;;
3253;SDS011;1639;42.804;23.342;2022-12-29T04:13:18;6.07;;;1.57;;
3253;SDS011;1639;42.804;23.342;2022-12-29T04:15:43;5.30;;;1.53;;
3253;SDS011;1639;42.804;23.342;2022-12-29T04:18:10;6.00;;;2.20;;
3253;SDS011;1639;42.804;23.342;2022-12-29T04:20:35;5.87;;;2.50;;
3253;SDS011;1639;42.804;23.342;2022-12-29T04:23:19;7.20;;;1.77;;
3253;SDS011;1639;42.804;23.342;2022-12-29T04:25:45;5.87;;;1.60;;
3253;SDS011;1639;42.804;23.342;2022-12-29T04:28:12;6.23;;;2.60;;
3253;SDS011;1639;42.804;23.342;2022-12-29T04:30:38;5.60;;;2.03;;
3253;SDS011;1639;42.804;23.342;2022-12-29T04:33:03;5.80;;;2.43;;
3253;SDS011;1639;42.804;23.342;2022-12-29T04:35:28;12.50;;;2.80;;
3253;SDS011;1639;42.804;23.342;2022-12-29T04:37:54;5.60;;;2.57;;
3253;SDS011;1639;42.804;23.342;2022-12-29T04:40:19;5.80;;;1.57;;
3253;SDS011;1639;42.804;23.342;2022-12-29T04:42:45;5.37;;;2.20;;
3253;SDS011;1639;42.804;23.342;2022-12-29T04:45:10;7.30;;;3.00;;
3253;SDS011;1639;42.804;23.342;2022-12-29T04:47:36;9.00;;;2.90;;
3253;SDS011;1639;42.804;23.342;2022-12-29T04:50:01;17.20;;;2.87;;
3253;SDS011;1639;42.804;23.342;2022-12-29T04:52:27;5.60;;;2.20;;
3253;SDS011;1639;42.804;23.342;2022-12-29T04:54:53;8.47;;;3.30;;
3253;SDS011;1639;42.804;23.342;2022-12-29T04:57:18;5.70;;;2.33;;
3253;SDS011;1639;42.804;23.342;2022-12-29T04:59:43;6.67;;;2.33;;
3253;SDS011;1639;42.804;23.342;2022-12-29T05:02:09;6.10;;;2.20;;
3253;SDS011;1639;42.804;23.342;2022-12-29T05:04:34;5.50;;;2.00;;
3253;SDS011;1639;42.804;23.342;2022-12-29T05:06:59;6.27;;;2.37;;
3253;SDS011;1639;42.804;23.342;2022-12-29T05:09:25;6.73;;;2.40;;
3253;SDS011;1639;42.804;23.342;2022-12-29T05:11:50;10.40;;;4.23;;
3253;SDS011;1639;42.804;23.342;2022-12-29T05:14:15;6.13;;;1.80;;
3253;SDS011;1639;42.804;23.342;2022-12-29T05:16:41;6.53;;;2.90;;
3253;SDS011;1639;42.804;23.342;2022-12-29T05:19:06;5.60;;;1.60;;
3253;SDS011;1639;42.804;23.342;2022-12-29T05:21:32;5.20;;;1.60;;
3253;SDS011;1639;42.804;23.342;2022-12-29T05:23:57;5.97;;;2.43;;
3253;SDS011;1639;42.804;23.342;2022-12-29T05:26:23;5.30;;;1.73;;
3253;SDS011;1639;42.804;23.342;2022-12-29T05:28:48;6.10;;;2.20;;
3253;SDS011;1639;42.804;23.342;2022-12-29T05:31:13;5.27;;;1.60;;
3253;SDS011;1639;42.804;23.342;2022-12-29T05:33:39;5.70;;;2.07;;
3253;SDS011;1639;42.804;23.342;2022-12-29T05:36:05;6.70;;;3.33;;
3253;SDS011;1639;42.804;23.342;2022-12-29T05:38:32;7.77;;;2.40;;
3253;SDS011;1639;42.804;23.342;2022-12-29T05:40:57;5.63;;;1.73;;
3253;SDS011;1639;42.804;23.342;2022-12-29T05:43:22;12.30;;;3.23;;
3253;SDS011;1639;42.804;23.342;2022-12-29T05:45:48;5.40;;;2.00;;
3253;SDS011;1639;42.804;23.342;2022-12-29T05:48:14;5.30;;;1.70;;
3253;SDS011;1639;42.804;23.342;2022-12-29T05:50:40;27.33;;;3.10;;
3253;SDS011;1639;42.804;23.342;2022-12-29T05:53:05;5.60;;;1.77;;
3253;SDS011;1639;42.804;23.342;2022-12-29T05:55:31;7.20;;;2.20;;
3253;SDS011;1639;42.804;23.342;2022-12-29T05:57:56;5.70;;;2.00;;
3253;SDS011;1639;42.804;23.342;2022-12-29T06:00:21;9.30;;;2.50;;
3253;SDS011;1639;42.804;23.342;2022-12-29T06:02:47;13.80;;;2.13;;
3253;SDS011;1639;42.804;23.342;2022-12-29T06:05:12;5.97;;;1.77;;
3253;SDS011;1639;42.804;23.342;2022-12-29T06:07:38;5.33;;;1.57;;
3253;SDS011;1639;42.804;23.342;2022-12-29T06:10:04;6.80;;;2.40;;
3253;SDS011;1639;42.804;23.342;2022-12-29T06:12:30;6.23;;;2.87;;
3253;SDS011;1639;42.804;23.342;2022-12-29T06:14:56;9.30;;;2.70;;
3253;SDS011;1639;42.804;23.342;2022-12-29T06:17:21;5.40;;;1.93;;
3253;SDS011;1639;42.804;23.342;2022-12-29T06:19:46;5.80;;;1.97;;
3253;SDS011;1639;42.804;23.342;2022-12-29T06:22:12;5.70;;;1.60;;
3253;SDS011;1639;42.804;23.342;2022-12-29T06:24:37;5.40;;;1.97;;
3253;SDS011;1639;42.804;23.342;2022-12-29T06:27:03;6.43;;;3.23;;
3253;SDS011;1639;42.804;23.342;2022-12-29T06:29:28;6.90;;;2.90;;
3253;SDS011;1639;42.804;23.342;2022-12-29T06:31:54;6.00;;;3.17;;
3253;SDS011;1639;42.804;23.342;2022-12-29T06:34:23;5.50;;;2.37;;
3253;SDS011;1639;42.804;23.342;2022-12-29T06:36:49;13.83;;;3.80;;
3253;SDS011;1639;42.804;23.342;2022-12-29T06:39:14;8.13;;;2.93;;
3253;SDS011;1639;42.804;23.342;2022-12-29T06:41:40;7.37;;;2.70;;
3253;SDS011;1639;42.804;23.342;2022-12-29T06:44:05;17.40;;;4.80;;
3253;SDS011;1639;42.804;23.342;2022-12-29T06:46:30;24.17;;;6.10;;
3253;SDS011;1639;42.804;23.342;2022-12-29T06:48:56;7.63;;;4.57;;
3253;SDS011;1639;42.804;23.342;2022-12-29T06:51:21;13.53;;;4.23;;
3253;SDS011;1639;42.804;23.342;2022-12-29T06:53:47;11.40;;;3.07;;
3253;SDS011;1639;42.804;23.342;2022-12-29T06:56:12;9.90;;;4.77;;
3253;SDS011;1639;42.804;23.342;2022-12-29T06:58:37;7.40;;;4.00;;
3253;SDS011;1639;42.804;23.342;2022-12-29T07:01:03;8.80;;;4.00;;
3253;SDS011;1639;42.804;23.342;2022-12-29T07:03:28;8.60;;;3.73;;
3253;SDS011;1639;42.804;23.342;2022-12-29T07:05:54;7.30;;;5.10;;
3253;SDS011;1639;42.804;23.342;2022-12-29T07:08:19;13.40;;;6.20;;
3253;SDS011;1639;42.804;23.342;2022-12-29T07:10:45;10.33;;;4.90;;
3253;SDS011;1639;42.804;23.342;2022-12-29T07:13:11;9.27;;;4.93;;
3253;SDS011;1639;42.804;23.342;2022-12-29T07:15:37;8.40;;;4.00;;
3253;SDS011;1639;42.804;23.342;2022-12-29T07:18:02;6.13;;;1.77;;
3253;SDS011;1639;42.804;23.342;2022-12-29T07:20:29;10.20;;;2.23;;
3253;SDS011;1639;42.804;23.342;2022-12-29T07:22:55;5.87;;;2.50;;
3253;SDS011;1639;42.804;23.342;2022-12-29T07:25:20;5.13;;;1.50;;
3253;SDS011;1639;42.804;23.342;2022-12-29T07:27:46;14.33;;;2.80;;
3253;SDS011;1639;42.804;23.342;2022-12-29T07:30:12;5.23;;;1.93;;
3253;SDS011;1639;42.804;23.342;2022-12-29T07:32:37;14.57;;;3.53;;
3253;SDS011;1639;42.804;23.342;2022-12-29T07:35:03;6.17;;;3.00;;
3253;SDS011;1639;42.804;23.342;2022-12-29T07:37:28;6.80;;;2.80;;
3253;SDS011;1639;42.804;23.342;2022-12-29T07:39:53;13.70;;;3.20;;
3253;SDS011;1639;42.804;23.342;2022-12-29T07:42:19;9.43;;;3.00;;
3253;SDS011;1639;42.804;23.342;2022-12-29T07:44:44;5.93;;;2.40;;
3253;SDS011;1639;42.804;23.342;2022-12-29T07:47:10;5.97;;;2.10;;
3253;SDS011;1639;42.804;23.342;2022-12-29T07:49:35;5.03;;;1.27;;
3253;SDS011;1639;42.804;23.342;2022-12-29T07:52:01;7.00;;;2.90;;
3253;SDS011;1639;42.804;23.342;2022-12-29T07:54:26;5.90;;;2.07;;
3253;SDS011;1639;42.804;23.342;2022-12-29T07:56:51;5.87;;;2.33;;
3253;SDS011;1639;42.804;23.342;2022-12-29T07:59:17;6.87;;;2.60;;
3253;SDS011;1639;42.804;23.342;2022-12-29T08:01:43;6.20;;;3.23;;
3253;SDS011;1639;42.804;23.342;2022-12-29T08:04:08;7.90;;;3.70;;
3253;SDS011;1639;42.804;23.342;2022-12-29T08:06:34;6.63;;;2.73;;
3253;SDS011;1639;42.804;23.342;2022-12-29T08:09:00;5.30;;;1.90;;
3253;SDS011;1639;42.804;23.342;2022-12-29T08:11:26;21.60;;;5.67;;
3253;SDS011;1639;42.804;23.342;2022-12-29T08:13:52;6.43;;;1.97;;
3253;SDS011;1639;42.804;23.342;2022-12-29T08:16:17;7.40;;;2.43;;
3253;SDS011;1639;42.804;23.342;2022-12-29T08:18:43;19.13;;;4.47;;
3253;SDS011;1639;42.804;23.342;2022-12-29T08:21:09;7.30;;;2.07;;
3253;SDS011;1639;42.804;23.342;2022-12-29T08:23:34;8.37;;;2.87;;
3253;SDS011;1639;42.804;23.342;2022-12-29T08:26:01;5.20;;;1.50;;
3253;SDS011;1639;42.804;23.342;2022-12-29T08:28:30;9.20;;;2.30;;
3253;SDS011;1639;42.804;23.342;2022-12-29T08:30:57;6.33;;;2.20;;
3253;SDS011;1639;42.804;23.342;2022-12-29T08:33:23;5.50;;;2.10;;
3253;SDS011;1639;42.804;23.342;2022-12-29T08:35:49;10.67;;;2.27;;
3253;SDS011;1639;42.804;23.342;2022-12-29T08:38:14;6.70;;;2.63;;
3253;SDS011;1639;42.804;23.342;2022-12-29T08:40:40;8.50;;;2.43;;
3253;SDS011;1639;42.804;23.342;2022-12-29T08:43:05;6.10;;;2.37;;
3253;SDS011;1639;42.804;23.342;2022-12-29T08:45:31;7.87;;;2.00;;
3253;SDS011;1639;42.804;23.342;2022-12-29T08:47:57;5.30;;;2.00;;
3253;SDS011;1639;42.804;23.342;2022-12-29T08:50:22;10.43;;;2.50;;
3253;SDS011;1639;42.804;23.342;2022-12-29T08:52:47;9.50;;;4.13;;
3253;SDS011;1639;42.804;23.342;2022-12-29T08:55:13;5.40;;;1.70;;
3253;SDS011;1639;42.804;23.342;2022-12-29T08:57:38;5.97;;;2.10;;
3253;SDS011;1639;42.804;23.342;2022-12-29T09:00:04;6.63;;;2.90;;
3253;SDS011;1639;42.804;23.342;2022-12-29T09:02:30;5.93;;;2.37;;
3253;SDS011;1639;42.804;23.342;2022-12-29T09:04:55;6.07;;;2.03;;
3253;SDS011;1639;42.804;23.342;2022-12-29T09:07:22;6.50;;;3.03;;
3253;SDS011;1639;42.804;23.342;2022-12-29T09:09:48;6.70;;;2.43;;
3253;SDS011;1639;42.804;23.342;2022-12-29T09:12:13;7.43;;;3.30;;
3253;SDS011;1639;42.804;23.342;2022-12-29T09:14:39;5.70;;;2.47;;
3253;SDS011;1639;42.804;23.342;2022-12-29T09:17:04;10.13;;;2.80;;
3253;SDS011;1639;42.804;23.342;2022-12-29T09:19:48;7.50;;;2.20;;
3253;SDS011;1639;42.804;23.342;2022-12-29T09:22:14;9.83;;;2.47;;
3253;SDS011;1639;42.804;23.342;2022-12-29T09:24:39;40.63;;;4.70;;
3253;SDS011;1639;42.804;23.342;2022-12-29T09:27:04;7.73;;;2.70;;
3253;SDS011;1639;42.804;23.342;2022-12-29T09:29:30;5.50;;;2.43;;
3253;SDS011;1639;42.804;23.342;2022-12-29T09:31:55;5.87;;;2.47;;
3253;SDS011;1639;42.804;23.342;2022-12-29T09:34:21;7.37;;;3.60;;
3253;SDS011;1639;42.804;23.342;2022-12-29T09:36:46;5.97;;;2.70;;
3253;SDS011;1639;42.804;23.342;2022-12-29T09:39:12;6.10;;;2.50;;
3253;SDS011;1639;42.804;23.342;2022-12-29T09:41:39;5.60;;;3.07;;
3253;SDS011;1639;42.804;23.342;2022-12-29T09:46:58;5.83;;;1.73;;
3253;SDS011;1639;42.804;23.342;2022-12-29T09:51:55;5.43;;;2.43;;
3253;SDS011;1639;42.804;23.342;2022-12-29T09:57:04;6.63;;;3.60;;
3253;SDS011;1639;42.804;23.342;2022-12-29T09:59:41;5.87;;;2.40;;
3253;SDS011;1639;42.804;23.342;2022-12-29T10:05:02;7.50;;;2.80;;
3253;SDS011;1639;42.804;23.342;2022-12-29T10:20:45;13.90;;;3.30;;
3253;SDS011;1639;42.804;23.342;2022-12-29T10:23:31;8.13;;;2.93;;
3253;SDS011;1639;42.804;23.342;2022-12-29T10:26:03;9.23;;;4.33;;
3253;SDS011;1639;42.804;23.342;2022-12-29T10:28:38;4.97;;;1.30;;
3253;SDS011;1639;42.804;23.342;2022-12-29T10:31:07;10.33;;;3.40;;
3253;SDS011;1639;42.804;23.342;2022-12-29T10:33:48;6.00;;;2.43;;
3253;SDS011;1639;42.804;23.342;2022-12-29T10:36:23;10.50;;;3.77;;
3253;SDS011;1639;42.804;23.342;2022-12-29T10:39:01;6.17;;;3.20;;
3253;SDS011;1639;42.804;23.342;2022-12-29T10:41:40;10.27;;;2.23;;
3253;SDS011;1639;42.804;23.342;2022-12-29T10:44:43;6.50;;;2.00;;
3253;SDS011;1639;42.804;23.342;2022-12-29T10:47:13;8.67;;;4.17;;
3253;SDS011;1639;42.804;23.342;2022-12-29T10:49:44;9.40;;;4.17;;
3253;SDS011;1639;42.804;23.342;2022-12-29T10:52:12;7.20;;;4.30;;
3253;SDS011;1639;42.804;23.342;2022-12-29T10:54:42;8.27;;;3.63;;
3253;SDS011;1639;42.804;23.342;2022-12-29T10:57:11;5.70;;;2.90;;
3253;SDS011;1639;42.804;23.342;2022-12-29T10:59:45;5.80;;;1.90;;
3253;SDS011;1639;42.804;23.342;2022-12-29T11:07:23;5.70;;;2.50;;
3253;SDS011;1639;42.804;23.342;2022-12-29T11:09:50;12.20;;;3.77;;
3253;SDS011;1639;42.804;23.342;2022-12-29T11:14:46;6.40;;;3.40;;
3253;SDS011;1639;42.804;23.342;2022-12-29T11:17:24;6.40;;;2.53;;
3253;SDS011;1639;42.804;23.342;2022-12-29T11:19:50;6.47;;;3.10;;
3253;SDS011;1639;42.804;23.342;2022-12-29T11:24:52;9.00;;;4.33;;
3253;SDS011;1639;42.804;23.342;2022-12-29T11:27:20;12.07;;;5.03;;
3253;SDS011;1639;42.804;23.342;2022-12-29T11:29:48;5.30;;;2.17;;
3253;SDS011;1639;42.804;23.342;2022-12-29T11:34:51;7.20;;;2.13;;
3253;SDS011;1639;42.804;23.342;2022-12-29T11:37:17;7.97;;;4.13;;
3253;SDS011;1639;42.804;23.342;2022-12-29T11:42:12;5.20;;;2.23;;
3253;SDS011;1639;42.804;23.342;2022-12-29T11:44:42;6.00;;;2.60;;
3253;SDS011;1639;42.804;23.342;2022-12-29T11:47:11;10.10;;;3.03;;
3253;SDS011;1639;42.804;23.342;2022-12-29T11:49:54;10.17;;;3.60;;
3253;SDS011;1639;42.804;23.342;2022-12-29T11:52:23;9.87;;;2.27;;
3253;SDS011;1639;42.804;23.342;2022-12-29T11:54:51;6.83;;;3.37;;
3253;SDS011;1639;42.804;23.342;2022-12-29T11:57:18;11.30;;;3.57;;
3253;SDS011;1639;42.804;23.342;2022-12-29T12:02:25;8.37;;;3.57;;
3253;SDS011;1639;42.804;23.342;2022-12-29T12:05:10;9.27;;;3.97;;
3253;SDS011;1639;42.804;23.342;2022-12-29T12:07:43;5.30;;;2.07;;
3253;SDS011;1639;42.804;23.342;2022-12-29T12:10:23;5.80;;;3.20;;
3253;SDS011;1639;42.804;23.342;2022-12-29T12:15:36;5.67;;;2.73;;
3253;SDS011;1639;42.804;23.342;2022-12-29T12:20:54;9.53;;;3.00;;
3253;SDS011;1639;42.804;23.342;2022-12-29T12:23:27;5.87;;;2.70;;
3253;SDS011;1639;42.804;23.342;2022-12-29T12:32:14;6.93;;;3.63;;
3253;SDS011;1639;42.804;23.342;2022-12-29T12:34:44;8.93;;;3.67;;
3253;SDS011;1639;42.804;23.342;2022-12-29T12:42:51;11.73;;;3.23;;
3253;SDS011;1639;42.804;23.342;2022-12-29T12:51:47;8.10;;;3.10;;
3253;SDS011;1639;42.804;23.342;2022-12-29T13:30:10;5.60;;;2.67;;
3253;SDS011;1639;42.804;23.342;2022-12-29T13:33:15;10.90;;;3.30;;
3253;SDS011;1639;42.804;23.342;2022-12-29T13:36:08;12.83;;;5.57;;
3253;SDS011;1639;42.804;23.342;2022-12-29T13:41:51;13.63;;;4.97;;
3253;SDS011;1639;42.804;23.342;2022-12-29T13:44:23;9.93;;;3.10;;
3253;SDS011;1639;42.804;23.342;2022-12-29T13:46:52;6.77;;;3.60;;
3253;SDS011;1639;42.804;23.342;2022-12-29T13:49:20;5.90;;;3.57;;
3253;SDS011;1639;42.804;23.342;2022-12-29T13:51:48;7.37;;;3.37;;
3253;SDS011;1639;42.804;23.342;2022-12-29T13:57:14;6.10;;;2.70;;
3253;SDS011;1639;42.804;23.342;2022-12-29T14:00:12;5.43;;;2.30;;
3253;SDS011;1639;42.804;23.342;2022-12-29T14:07:58;35.07;;;17.40;;
3253;SDS011;1639;42.804;23.342;2022-12-29T14:10:30;32.13;;;19.40;;
3253;SDS011;1639;42.804;23.342;2022-12-29T14:13:05;32.10;;;15.83;;
3253;SDS011;1639;42.804;23.342;2022-12-29T14:15:41;7.90;;;6.00;;
3253;SDS011;1639;42.804;23.342;2022-12-29T14:28:31;11.03;;;5.10;;
3253;SDS011;1639;42.804;23.342;2022-12-29T14:31:00;14.23;;;5.80;;
3253;SDS011;1639;42.804;23.342;2022-12-29T14:33:28;10.70;;;4.70;;
3253;SDS011;1639;42.804;23.342;2022-12-29T14:35:55;7.37;;;3.40;;
3253;SDS011;1639;42.804;23.342;2022-12-29T14:38:22;6.20;;;3.30;;
3253;SDS011;1639;42.804;23.342;2022-12-29T14:40:50;11.70;;;5.13;;
3253;SDS011;1639;42.804;23.342;2022-12-29T14:43:26;9.07;;;4.00;;
3253;SDS011;1639;42.804;23.342;2022-12-29T14:45:57;10.17;;;4.10;;
3253;SDS011;1639;42.804;23.342;2022-12-29T14:48:36;11.20;;;3.23;;
3253;SDS011;1639;42.804;23.342;2022-12-29T14:51:17;6.03;;;3.17;;
3253;SDS011;1639;42.804;23.342;2022-12-29T14:53:54;18.13;;;3.20;;
3253;SDS011;1639;42.804;23.342;2022-12-29T14:56:23;8.20;;;3.00;;
3253;SDS011;1639;42.804;23.342;2022-12-29T14:58:51;8.37;;;4.57;;
3253;SDS011;1639;42.804;23.342;2022-12-29T15:01:26;22.53;;;6.03;;
3253;SDS011;1639;42.804;23.342;2022-12-29T15:03:59;6.70;;;3.60;;
3253;SDS011;1639;42.804;23.342;2022-12-29T15:06:30;7.97;;;4.20;;
3253;SDS011;1639;42.804;23.342;2022-12-29T15:09:03;7.53;;;4.63;;
3253;SDS011;1639;42.804;23.342;2022-12-29T15:14:00;9.40;;;6.07;;
3253;SDS011;1639;42.804;23.342;2022-12-29T15:18:56;14.90;;;4.00;;
3253;SDS011;1639;42.804;23.342;2022-12-29T15:21:26;7.03;;;3.70;;
3253;SDS011;1639;42.804;23.342;2022-12-29T15:23:56;15.90;;;3.27;;
3253;SDS011;1639;42.804;23.342;2022-12-29T15:26:22;16.97;;;4.60;;
3253;SDS011;1639;42.804;23.342;2022-12-29T15:28:52;14.03;;;3.00;;
3253;SDS011;1639;42.804;23.342;2022-12-29T15:33:47;7.80;;;3.80;;
3253;SDS011;1639;42.804;23.342;2022-12-29T15:36:21;9.53;;;4.13;;
3253;SDS011;1639;42.804;23.342;2022-12-29T15:38:48;7.90;;;4.27;;
3253;SDS011;1639;42.804;23.342;2022-12-29T15:44:20;9.53;;;4.70;;
3253;SDS011;1639;42.804;23.342;2022-12-29T15:46:48;12.90;;;4.83;;
3253;SDS011;1639;42.804;23.342;2022-12-29T15:49:14;9.87;;;4.50;;
3253;SDS011;1639;42.804;23.342;2022-12-29T15:51:40;10.40;;;5.50;;
3253;SDS011;1639;42.804;23.342;2022-12-29T15:54:14;8.70;;;5.60;;
3253;SDS011;1639;42.804;23.342;2022-12-29T15:56:42;7.20;;;4.00;;
3253;SDS011;1639;42.804;23.342;2022-12-29T16:01:56;16.73;;;6.37;;
3253;SDS011;1639;42.804;23.342;2022-12-29T16:04:24;9.30;;;5.40;;
3253;SDS011;1639;42.804;23.342;2022-12-29T16:06:56;24.67;;;5.93;;
3253;SDS011;1639;42.804;23.342;2022-12-29T16:09:35;11.10;;;4.70;;
3253;SDS011;1639;42.804;23.342;2022-12-29T16:12:07;8.73;;;4.70;;
3253;SDS011;1639;42.804;23.342;2022-12-29T16:14:44;17.80;;;8.60;;
3253;SDS011;1639;42.804;23.342;2022-12-29T16:17:16;10.50;;;5.53;;
3253;SDS011;1639;42.804;23.342;2022-12-29T16:19:50;10.63;;;4.90;;
3253;SDS011;1639;42.804;23.342;2022-12-29T16:22:39;8.43;;;5.20;;
3253;SDS011;1639;42.804;23.342;2022-12-29T16:25:31;16.47;;;3.37;;
3253;SDS011;1639;42.804;23.342;2022-12-29T16:27:59;14.33;;;5.27;;
3253;SDS011;1639;42.804;23.342;2022-12-29T16:30:28;8.57;;;4.03;;
3253;SDS011;1639;42.804;23.342;2022-12-29T16:32:56;9.50;;;6.30;;
3253;SDS011;1639;42.804;23.342;2022-12-29T16:35:24;9.03;;;5.37;;
3253;SDS011;1639;42.804;23.342;2022-12-29T16:40:49;30.00;;;7.33;;
3253;SDS011;1639;42.804;23.342;2022-12-29T16:43:33;15.60;;;7.10;;
3253;SDS011;1639;42.804;23.342;2022-12-29T16:46:19;21.70;;;8.43;;
3253;SDS011;1639;42.804;23.342;2022-12-29T16:48:52;18.70;;;10.60;;
3253;SDS011;1639;42.804;23.342;2022-12-29T16:51:35;10.53;;;6.50;;
3253;SDS011;1639;42.804;23.342;2022-12-29T16:54:02;33.17;;;8.27;;
3253;SDS011;1639;42.804;23.342;2022-12-29T16:56:30;16.53;;;8.50;;
3253;SDS011;1639;42.804;23.342;2022-12-29T17:01:41;12.57;;;7.43;;
3253;SDS011;1639;42.804;23.342;2022-12-29T17:04:10;12.77;;;7.57;;
3253;SDS011;1639;42.804;23.342;2022-12-29T17:06:38;13.83;;;6.13;;
3253;SDS011;1639;42.804;23.342;2022-12-29T17:09:15;18.60;;;7.77;;
3253;SDS011;1639;42.804;23.342;2022-12-29T17:11:52;10.87;;;8.10;;
3253;SDS011;1639;42.804;23.342;2022-12-29T17:20:17;15.27;;;9.47;;
3253;SDS011;1639;42.804;23.342;2022-12-29T17:22:45;17.40;;;10.20;;
3253;SDS011;1639;42.804;23.342;2022-12-29T17:25:15;23.73;;;13.20;;
3253;SDS011;1639;42.804;23.342;2022-12-29T17:27:59;12.63;;;7.63;;
3253;SDS011;1639;42.804;23.342;2022-12-29T17:30:28;16.03;;;10.53;;
3253;SDS011;1639;42.804;23.342;2022-12-29T17:35:51;10.70;;;5.90;;
3253;SDS011;1639;42.804;23.342;2022-12-29T17:38:18;20.97;;;10.00;;
3253;SDS011;1639;42.804;23.342;2022-12-29T17:40:53;17.97;;;8.20;;
3253;SDS011;1639;42.804;23.342;2022-12-29T17:43:19;20.97;;;9.57;;
3253;SDS011;1639;42.804;23.342;2022-12-29T17:45:46;30.13;;;9.60;;
3253;SDS011;1639;42.804;23.342;2022-12-29T17:48:17;11.93;;;5.87;;
3253;SDS011;1639;42.804;23.342;2022-12-29T17:50:43;14.20;;;4.23;;
3253;SDS011;1639;42.804;23.342;2022-12-29T17:53:11;8.07;;;4.63;;
3253;SDS011;1639;42.804;23.342;2022-12-29T17:55:43;35.27;;;5.40;;
3253;SDS011;1639;42.804;23.342;2022-12-29T17:58:16;12.67;;;4.77;;
3253;SDS011;1639;42.804;23.342;2022-12-29T18:00:46;19.87;;;5.00;;
3253;SDS011;1639;42.804;23.342;2022-12-29T18:03:15;11.60;;;4.30;;
3253;SDS011;1639;42.804;23.342;2022-12-29T18:05:41;7.43;;;3.60;;
3253;SDS011;1639;42.804;23.342;2022-12-29T18:08:07;13.00;;;4.40;;
3253;SDS011;1639;42.804;23.342;2022-12-29T18:10:34;12.63;;;5.93;;
3253;SDS011;1639;42.804;23.342;2022-12-29T18:12:59;19.30;;;13.80;;
3253;SDS011;1639;42.804;23.342;2022-12-29T18:15:27;25.23;;;12.60;;
3253;SDS011;1639;42.804;23.342;2022-12-29T18:17:58;25.80;;;11.70;;
3253;SDS011;1639;42.804;23.342;2022-12-29T18:20:35;15.20;;;8.03;;
3253;SDS011;1639;42.804;23.342;2022-12-29T18:23:01;21.63;;;10.27;;